createdAt,value
2022-11-29T00:00:55.445Z,14.45
2022-11-29T00:03:58.882Z,12.57
2022-11-29T00:19:55.168Z,12.23
2022-11-29T00:22:58.453Z,9.77
2022-11-29T00:26:06.648Z,12.00
2022-11-29T00:29:12.379Z,10.85
2022-11-29T00:32:15.696Z,11.15
2022-11-29T00:35:19.006Z,11.80
2022-11-29T00:38:21.509Z,9.90
2022-11-29T00:41:25.216Z,12.82
2022-11-29T00:44:28.200Z,12.88
2022-11-29T00:47:31.189Z,13.90
2022-11-29T00:50:33.855Z,13.45
2022-11-29T00:53:38.033Z,12.90
2022-11-29T00:56:40.453Z,12.27
2022-11-29T00:59:44.554Z,13.52
2022-11-29T01:02:48.687Z,11.95
2022-11-29T01:05:53.434Z,13.27
2022-11-29T01:08:56.057Z,11.43
2022-11-29T01:11:58.739Z,13.52
2022-11-29T01:15:01.186Z,11.95
2022-11-29T01:18:05.089Z,12.95
2022-11-29T01:21:17.389Z,14.07
2022-11-29T01:24:22.188Z,13.43
2022-11-29T01:27:25.023Z,12.35
2022-11-29T01:30:28.146Z,11.73
2022-11-29T01:33:30.830Z,10.90
2022-11-29T01:36:34.561Z,12.05
2022-11-29T01:39:37.859Z,11.43
2022-11-29T01:42:40.582Z,11.10
2022-11-29T01:45:45.570Z,11.70
2022-11-29T01:48:51.324Z,11.00
2022-11-29T01:52:00.032Z,10.85
2022-11-29T01:55:07.750Z,10.90
2022-11-29T01:58:10.954Z,11.57
2022-11-29T02:01:15.129Z,10.57
2022-11-29T02:04:19.319Z,10.73
2022-11-29T02:07:22.333Z,11.45
2022-11-29T02:10:49.157Z,12.15
2022-11-29T02:14:37.588Z,10.63
2022-11-29T02:18:27.210Z,10.10
2022-11-29T02:21:42.238Z,9.70
2022-11-29T02:25:08.077Z,10.73
2022-11-29T02:28:42.103Z,10.15
2022-11-29T02:32:36.708Z,10.55
2022-11-29T02:36:23.724Z,10.30
2022-11-29T02:39:35.086Z,10.88
2022-11-29T02:43:07.262Z,11.32
2022-11-29T02:46:39.603Z,10.30
2022-11-29T02:49:58.594Z,10.25
2022-11-29T02:53:23.682Z,9.63
2022-11-29T02:56:34.639Z,9.85
2022-11-29T03:00:03.402Z,9.63
2022-11-29T03:03:17.899Z,10.18
2022-11-29T03:06:44.210Z,9.80
2022-11-29T03:10:04.969Z,10.32
2022-11-29T03:13:22.526Z,9.98
2022-11-29T03:16:51.039Z,10.10
2022-11-29T03:20:20.565Z,11.50
2022-11-29T03:23:28.920Z,9.90
2022-11-29T03:26:43.336Z,10.02
2022-11-29T03:29:57.853Z,10.73
2022-11-29T03:33:16.945Z,9.70
2022-11-29T03:36:44.943Z,9.40
2022-11-29T03:39:59.780Z,9.97
2022-11-29T03:43:10.962Z,9.68
2022-11-29T03:46:35.390Z,10.77
2022-11-29T03:49:54.676Z,10.75
2022-11-29T03:53:13.154Z,11.30
2022-11-29T03:56:23.092Z,11.17
2022-11-29T03:59:50.637Z,8.40
2022-11-29T04:03:18.449Z,10.95
2022-11-29T04:07:00.932Z,11.02
2022-11-29T04:10:23.192Z,6.20
2022-11-29T04:13:49.295Z,8.85
2022-11-29T04:17:24.321Z,8.98
2022-11-29T04:20:39.080Z,9.68
2022-11-29T04:24:13.893Z,10.33
2022-11-29T04:27:31.038Z,8.02
2022-11-29T04:31:01.697Z,7.55
2022-11-29T04:34:38.675Z,8.25
2022-11-29T04:37:47.139Z,7.97
2022-11-29T04:41:04.834Z,9.15
2022-11-29T04:44:16.698Z,7.03
2022-11-29T04:47:57.475Z,7.95
2022-11-29T04:51:15.617Z,9.03
2022-11-29T04:55:00.726Z,8.40
2022-11-29T04:58:19.274Z,8.32
2022-11-29T05:01:56.524Z,9.25
2022-11-29T05:05:29.447Z,7.82
2022-11-29T05:08:39.715Z,8.83
2022-11-29T05:11:58.840Z,10.05
2022-11-29T05:15:29.453Z,9.02
2022-11-29T05:19:12.179Z,10.05
2022-11-29T05:22:39.325Z,7.80
2022-11-29T05:26:07.840Z,9.13
2022-11-29T05:29:29.840Z,7.37
2022-11-29T05:32:56.045Z,7.55
2022-11-29T05:36:14.015Z,9.50
2022-11-29T05:39:35.080Z,9.45
2022-11-29T05:42:56.747Z,8.43
2022-11-29T05:46:12.855Z,8.90
2022-11-29T05:49:35.263Z,7.25
2022-11-29T05:53:23.458Z,7.32
2022-11-29T05:56:34.682Z,8.55
2022-11-29T05:59:39.025Z,8.55
2022-11-29T06:02:54.408Z,9.55
2022-11-29T06:06:07.640Z,7.77
2022-11-29T06:09:29.359Z,7.65
2022-11-29T06:12:37.866Z,9.30
2022-11-29T06:16:16.584Z,9.35
2022-11-29T06:19:58.215Z,9.05
2022-11-29T06:23:29.367Z,8.63
2022-11-29T06:26:46.758Z,9.50
2022-11-29T06:30:13.564Z,13.13
2022-11-29T06:33:36.606Z,9.30
2022-11-29T06:36:48.930Z,8.40
2022-11-29T06:39:52.212Z,8.82
2022-11-29T06:42:55.868Z,9.38
2022-11-29T06:46:02.713Z,11.25
2022-11-29T06:49:30.690Z,10.02
2022-11-29T06:53:00.645Z,8.80
2022-11-29T06:56:25.429Z,10.10
2022-11-29T06:59:49.023Z,9.55
2022-11-29T07:03:24.682Z,10.57
2022-11-29T07:06:29.777Z,9.07
2022-11-29T07:09:35.636Z,10.80
2022-11-29T07:12:40.625Z,10.43
2022-11-29T07:16:04.711Z,10.48
2022-11-29T07:19:34.723Z,8.32
2022-11-29T07:23:08.853Z,9.50
2022-11-29T07:26:22.705Z,10.75
2022-11-29T07:29:47.865Z,11.82
2022-11-29T07:33:09.354Z,10.52
2022-11-29T07:36:50.123Z,10.57
2022-11-29T07:39:57.629Z,12.13
2022-11-29T07:43:38.868Z,10.43
2022-11-29T07:46:44.074Z,11.55
2022-11-29T07:49:48.079Z,9.85
2022-11-29T07:52:54.078Z,11.20
2022-11-29T07:55:58.648Z,10.73
2022-11-29T07:59:03.006Z,10.20
2022-11-29T08:02:11.647Z,10.55
2022-11-29T08:05:17.956Z,10.52
2022-11-29T08:08:20.943Z,11.10
2022-11-29T08:11:27.589Z,11.57
2022-11-29T08:14:34.038Z,10.38
2022-11-29T08:17:39.354Z,11.48
2022-11-29T08:20:43.765Z,10.23
2022-11-29T08:23:56.902Z,11.02
2022-11-29T08:27:01.058Z,10.60
2022-11-29T08:30:06.585Z,11.25
2022-11-29T08:33:10.749Z,10.37
2022-11-29T08:36:17.628Z,10.43
2022-11-29T08:39:28.155Z,9.52
2022-11-29T08:42:32.048Z,10.82
2022-11-29T08:45:34.884Z,11.02
2022-11-29T08:48:39.045Z,10.00
2022-11-29T08:51:42.747Z,10.57
2022-11-29T08:54:46.807Z,11.25
2022-11-29T08:57:51.330Z,12.50
2022-11-29T09:00:54.469Z,13.55
2022-11-29T09:04:00.599Z,12.57
2022-11-29T09:07:03.745Z,14.68
2022-11-29T09:10:09.129Z,14.57
2022-11-29T09:13:13.360Z,12.10
2022-11-29T09:16:26.631Z,12.65
2022-11-29T09:19:34.396Z,13.67
2022-11-29T09:22:39.303Z,15.13
2022-11-29T09:25:48.815Z,12.95
2022-11-29T09:28:52.638Z,13.95
2022-11-29T09:31:58.217Z,14.15
2022-11-29T09:35:01.864Z,13.27
2022-11-29T09:38:12.619Z,11.95
2022-11-29T09:41:32.350Z,13.95
2022-11-29T09:45:02.794Z,14.27
2022-11-29T09:48:47.284Z,13.90
2022-11-29T09:51:54.752Z,14.60
2022-11-29T09:55:25.752Z,14.45
2022-11-29T09:58:43.909Z,14.63
2022-11-29T10:01:51.514Z,15.57
2022-11-29T10:05:10.519Z,13.53
2022-11-29T10:08:25.861Z,13.55
2022-11-29T10:11:41.707Z,12.63
2022-11-29T10:14:59.543Z,13.40
2022-11-29T10:18:28.910Z,13.05
2022-11-29T10:21:38.412Z,13.83
2022-11-29T10:24:44.878Z,13.57
2022-11-29T10:27:48.912Z,14.43
2022-11-29T10:31:01.998Z,14.80
2022-11-29T10:34:15.276Z,13.30
2022-11-29T10:37:21.645Z,14.87
2022-11-29T10:40:35.281Z,15.05
2022-11-29T10:43:45.639Z,13.85
2022-11-29T10:46:51.032Z,14.57
2022-11-29T10:49:54.558Z,16.35
2022-11-29T10:53:13.853Z,14.70
2022-11-29T10:56:29.708Z,14.85
2022-11-29T10:59:36.885Z,16.92
2022-11-29T11:02:41.663Z,15.55
2022-11-29T11:05:57.882Z,15.18
2022-11-29T11:09:35.636Z,14.17
2022-11-29T11:12:39.597Z,14.65
2022-11-29T11:15:43.746Z,17.50
2022-11-29T11:18:48.184Z,16.48
2022-11-29T11:21:52.654Z,16.73
2022-11-29T11:25:04.476Z,14.83
2022-11-29T11:28:30.502Z,18.42
2022-11-29T11:31:38.724Z,14.87
2022-11-29T11:34:52.234Z,15.95
2022-11-29T11:37:58.796Z,12.13
2022-11-29T11:41:48.774Z,13.47
2022-11-29T11:44:53.730Z,13.20
2022-11-29T11:47:59.937Z,16.87
2022-11-29T11:51:06.592Z,12.70
2022-11-29T11:54:15.441Z,13.60
2022-11-29T11:57:21.522Z,14.17
2022-11-29T12:01:03.025Z,16.58
2022-11-29T12:04:38.004Z,14.18
2022-11-29T12:08:16.596Z,15.25
2022-11-29T12:11:20.795Z,14.32
2022-11-29T12:14:34.389Z,16.53
2022-11-29T12:17:49.822Z,16.47
2022-11-29T12:21:38.769Z,10.57
2022-11-29T12:24:55.489Z,15.85
2022-11-29T12:27:58.534Z,15.68
2022-11-29T12:31:55.538Z,14.83
2022-11-29T12:35:13.617Z,17.73
2022-11-29T12:38:26.533Z,15.77
2022-11-29T12:42:07.020Z,16.20
2022-11-29T12:45:37.184Z,18.23
2022-11-29T12:48:42.107Z,15.83
2022-11-29T12:52:05.922Z,17.15
2022-11-29T12:55:30.188Z,17.70
2022-11-29T12:59:14.166Z,17.50
2022-11-29T13:02:49.075Z,17.50
2022-11-29T13:06:17.374Z,18.00
2022-11-29T13:10:03.858Z,16.65
2022-11-29T13:13:38.980Z,17.90
2022-11-29T13:17:05.151Z,17.33
2022-11-29T13:20:28.993Z,16.83
2022-11-29T13:23:45.880Z,15.90
2022-11-29T13:27:07.256Z,16.48
2022-11-29T13:30:18.544Z,16.83
2022-11-29T13:33:41.847Z,16.85
2022-11-29T13:37:15.086Z,17.58
2022-11-29T13:40:32.650Z,17.03
2022-11-29T13:43:46.142Z,15.55
2022-11-29T13:46:52.727Z,17.83
2022-11-29T13:50:05.517Z,13.90
2022-11-29T13:53:21.985Z,16.85
2022-11-29T13:56:48.924Z,15.37
2022-11-29T13:59:55.691Z,19.17
2022-11-29T14:03:21.810Z,16.70
2022-11-29T14:06:37.439Z,16.75
2022-11-29T14:09:59.364Z,17.73
2022-11-29T14:13:07.986Z,16.20
2022-11-29T14:16:26.749Z,18.27
2022-11-29T14:19:38.555Z,19.30
2022-11-29T14:23:12.665Z,19.02
2022-11-29T14:26:29.160Z,20.48
2022-11-29T14:29:50.486Z,21.17
2022-11-29T14:33:36.082Z,18.63
2022-11-29T14:37:10.531Z,17.95
2022-11-29T14:40:40.034Z,17.60
2022-11-29T14:43:44.497Z,17.30
2022-11-29T14:46:51.552Z,17.87
2022-11-29T14:50:08.503Z,17.73
2022-11-29T14:53:36.498Z,17.02
2022-11-29T14:56:48.569Z,16.45
2022-11-29T15:00:08.546Z,17.73
2022-11-29T15:03:55.484Z,17.30
2022-11-29T16:05:41.463Z,15.23
2022-11-29T16:08:53.693Z,17.10
2022-11-29T16:12:02.484Z,16.67
2022-11-29T16:15:31.523Z,15.57
2022-11-29T16:18:47.494Z,17.65
2022-11-29T16:22:12.009Z,19.40
2022-11-29T16:25:27.196Z,56.05
2022-11-29T16:28:41.580Z,27.27
2022-11-29T16:31:51.006Z,18.55
2022-11-29T16:34:57.553Z,18.87
2022-11-29T16:38:10.624Z,19.27
2022-11-29T16:41:34.823Z,17.12
2022-11-29T16:44:49.483Z,21.20
2022-11-29T16:48:00.561Z,21.55
2022-11-29T16:51:21.574Z,19.87
2022-11-29T16:54:33.703Z,19.63
2022-11-29T16:57:48.518Z,18.37
2022-11-29T17:01:01.591Z,17.17
2022-11-29T17:04:23.525Z,16.58
2022-11-29T17:07:43.510Z,19.17
2022-11-29T17:10:52.713Z,19.67
2022-11-29T17:14:03.482Z,17.67
2022-11-29T17:17:21.455Z,18.35
2022-11-29T17:20:28.881Z,17.08
2022-11-29T17:23:45.437Z,19.10
2022-11-29T17:27:04.527Z,17.30
2022-11-29T17:30:12.413Z,17.35
2022-11-29T17:33:21.691Z,19.12
2022-11-29T17:36:32.416Z,19.77
2022-11-29T17:39:39.541Z,18.37
2022-11-29T17:42:51.555Z,24.40
2022-11-29T17:45:55.771Z,22.92
2022-11-29T17:49:01.323Z,19.85
2022-11-29T17:52:06.105Z,17.77
2022-11-29T17:55:20.480Z,18.27
2022-11-29T17:58:24.423Z,19.03
2022-11-29T18:01:38.754Z,18.58
2022-11-29T18:04:47.478Z,19.65
2022-11-29T18:08:07.605Z,20.23
2022-11-29T18:11:22.620Z,19.30
2022-11-29T18:14:36.521Z,20.37
2022-11-29T18:17:40.608Z,19.12
2022-11-29T18:20:50.469Z,21.30
2022-11-29T18:23:55.759Z,22.73
2022-11-29T18:27:00.881Z,21.15
2022-11-29T18:30:14.975Z,23.00
2022-11-29T18:33:23.472Z,25.17
2022-11-29T18:36:37.889Z,22.50
2022-11-29T18:39:53.798Z,24.17
2022-11-29T18:42:58.670Z,23.55
2022-11-29T18:46:24.121Z,24.40
2022-11-29T18:49:35.755Z,28.13
2022-11-29T18:52:58.385Z,24.85
2022-11-29T18:56:17.567Z,25.05
2022-11-29T18:59:29.442Z,25.77
2022-11-29T19:02:40.820Z,29.60
2022-11-29T19:06:00.477Z,25.45
2022-11-29T19:09:16.517Z,27.62
2022-11-29T19:12:22.588Z,27.13
2022-11-29T19:15:46.442Z,27.13
2022-11-29T19:18:54.554Z,29.87
2022-11-29T19:22:07.405Z,29.85
2022-11-29T19:25:17.577Z,28.27
2022-11-29T19:28:44.438Z,26.20
2022-11-29T19:31:53.618Z,26.02
2022-11-29T19:35:07.061Z,28.03
2022-11-29T19:38:16.797Z,27.45
2022-11-29T19:41:29.920Z,26.23
2022-11-29T19:45:14.905Z,25.98
2022-11-29T19:48:13.481Z,27.35
2022-11-29T19:51:18.086Z,26.30
2022-11-29T19:54:33.908Z,28.30
2022-11-29T19:58:02.770Z,27.73
2022-11-29T20:01:40.755Z,26.67
2022-11-29T20:05:00.716Z,28.55
2022-11-29T20:08:18.365Z,35.13
2022-11-29T20:11:33.599Z,26.23
2022-11-29T20:14:40.509Z,26.62
2022-11-29T20:17:53.401Z,26.35
2022-11-29T20:21:06.783Z,25.37
2022-11-29T20:24:19.746Z,26.40
2022-11-29T20:27:37.345Z,25.77
2022-11-29T20:30:48.295Z,25.77
2022-11-29T20:33:59.634Z,33.25
2022-11-29T20:37:36.504Z,29.10
2022-11-29T20:41:02.313Z,28.53
2022-11-29T20:44:17.617Z,29.90
2022-11-29T20:47:25.473Z,26.08
2022-11-29T20:50:39.551Z,23.27
2022-11-29T20:53:48.846Z,21.65
2022-11-29T20:56:59.700Z,22.53
2022-11-29T21:00:08.615Z,22.60
2022-11-29T21:03:17.135Z,23.25
2022-11-29T21:06:27.182Z,23.33
2022-11-29T21:09:33.418Z,22.70
2022-11-29T21:12:40.463Z,23.83
2022-11-29T21:15:45.741Z,24.77
2022-11-29T21:18:54.969Z,24.60
2022-11-29T21:22:48.988Z,27.27
2022-11-29T21:26:23.461Z,24.42
2022-11-29T21:29:43.354Z,26.90
2022-11-29T21:32:46.893Z,24.70
2022-11-29T21:35:58.210Z,24.80
2022-11-29T21:39:09.658Z,26.55
2022-11-29T21:42:13.817Z,31.30
2022-11-29T21:45:20.602Z,24.27
2022-11-29T21:48:36.280Z,22.67
2022-11-29T21:51:40.754Z,22.17
2022-11-29T21:54:46.594Z,23.17
2022-11-29T21:57:51.110Z,22.20
2022-11-29T22:00:54.477Z,21.77
2022-11-29T22:03:57.842Z,19.77
2022-11-29T22:07:03.456Z,21.33
2022-11-29T22:10:13.346Z,22.25
2022-11-29T22:13:16.261Z,21.02
2022-11-29T22:16:20.492Z,22.27
2022-11-29T22:19:30.337Z,20.57
2022-11-29T22:22:33.551Z,19.50
2022-11-29T22:25:36.873Z,20.50
2022-11-29T22:28:39.988Z,20.83
2022-11-29T22:31:45.221Z,19.83
2022-11-29T22:34:48.377Z,20.83
2022-11-29T22:37:51.733Z,19.10
2022-11-29T22:40:59.180Z,20.80
2022-11-29T22:44:05.502Z,20.25
2022-11-29T22:47:13.852Z,20.57
2022-11-29T22:50:24.761Z,19.92
2022-11-29T22:53:28.794Z,19.15
2022-11-29T22:56:33.708Z,19.60
2022-11-29T22:59:38.857Z,20.65
2022-11-29T23:02:48.004Z,20.47
2022-11-29T23:05:51.931Z,19.83
2022-11-29T23:08:58.840Z,19.45
2022-11-29T23:12:02.284Z,20.88
2022-11-29T23:15:05.363Z,19.35
2022-11-29T23:18:08.383Z,18.27
2022-11-29T23:21:15.635Z,18.80
2022-11-29T23:24:18.886Z,18.77
2022-11-29T23:27:22.599Z,17.92
2022-11-29T23:30:25.672Z,19.10
2022-11-29T23:33:29.070Z,19.17
2022-11-29T23:36:32.198Z,18.95
2022-11-29T23:39:35.074Z,17.87
2022-11-29T23:42:43.598Z,20.08
2022-11-29T23:45:49.816Z,19.52
2022-11-29T23:48:53.057Z,20.90
2022-11-29T23:51:55.891Z,17.83
2022-11-29T23:54:59.918Z,19.10
2022-11-29T23:58:03.423Z,18.92
